sensor_id;sensor_type;location;lat;lon;timestamp;pressure;altitude;pressure_sealevel;temperature;humidity
9091;BME280;4581;42.416;25.598;2022-09-28T00:03:41;97259.13;;;17.63;91.47
9091;BME280;4581;42.416;25.598;2022-09-28T00:06:11;97256.16;;;17.64;91.17
9091;BME280;4581;42.416;25.598;2022-09-28T00:08:39;97260.59;;;17.54;91.35
9091;BME280;4581;42.416;25.598;2022-09-28T00:11:07;97226.31;;;17.36;91.39
9091;BME280;4581;42.416;25.598;2022-09-28T00:13:37;97274.75;;;17.51;91.55
9091;BME280;4581;42.416;25.598;2022-09-28T00:16:16;97259.00;;;17.36;91.91
9091;BME280;4581;42.416;25.598;2022-09-28T00:18:48;97269.81;;;17.31;91.60
9091;BME280;4581;42.416;25.598;2022-09-28T00:21:23;97285.22;;;17.42;92.20
9091;BME280;4581;42.416;25.598;2022-09-28T00:23:51;97282.94;;;17.34;92.15
9091;BME280;4581;42.416;25.598;2022-09-28T00:26:57;97289.72;;;17.31;92.31
9091;BME280;4581;42.416;25.598;2022-09-28T00:29:34;97272.81;;;17.13;91.80
9091;BME280;4581;42.416;25.598;2022-09-28T00:32:22;97292.84;;;17.23;92.10
9091;BME280;4581;42.416;25.598;2022-09-28T00:34:55;97286.56;;;17.06;91.92
9091;BME280;4581;42.416;25.598;2022-09-28T00:37:23;97263.13;;;17.05;91.08
9091;BME280;4581;42.416;25.598;2022-09-28T00:39:49;97272.31;;;17.16;91.72
9091;BME280;4581;42.416;25.598;2022-09-28T00:42:19;97237.97;;;16.98;91.16
9091;BME280;4581;42.416;25.598;2022-09-28T00:44:49;97282.19;;;17.22;91.13
9091;BME280;4581;42.416;25.598;2022-09-28T00:52:28;97275.84;;;17.00;90.95
9091;BME280;4581;42.416;25.598;2022-09-28T00:54:59;97261.97;;;16.84;91.66
9091;BME280;4581;42.416;25.598;2022-09-28T00:57:27;97272.78;;;16.96;92.03
9091;BME280;4581;42.416;25.598;2022-09-28T00:59:55;97268.72;;;16.82;91.86
9091;BME280;4581;42.416;25.598;2022-09-28T01:02:23;97257.19;;;16.75;91.31
9091;BME280;4581;42.416;25.598;2022-09-28T01:04:50;97254.53;;;16.63;91.21
9091;BME280;4581;42.416;25.598;2022-09-28T01:07:18;97220.72;;;16.59;90.21
9091;BME280;4581;42.416;25.598;2022-09-28T01:09:45;97260.47;;;16.94;88.80
9091;BME280;4581;42.416;25.598;2022-09-28T01:12:12;97266.44;;;17.24;87.26
9091;BME280;4581;42.416;25.598;2022-09-28T01:14:39;97259.16;;;17.29;86.74
9091;BME280;4581;42.416;25.598;2022-09-28T01:17:12;97270.19;;;17.56;85.35
9091;BME280;4581;42.416;25.598;2022-09-28T01:20:01;97266.31;;;17.69;85.09
9091;BME280;4581;42.416;25.598;2022-09-28T01:28:12;97245.97;;;17.98;84.19
9091;BME280;4581;42.416;25.598;2022-09-28T01:30:52;97240.34;;;18.05;84.04
9091;BME280;4581;42.416;25.598;2022-09-28T01:33:36;97206.59;;;17.89;84.26
9091;BME280;4581;42.416;25.598;2022-09-28T01:36:10;97229.44;;;18.05;84.90
9091;BME280;4581;42.416;25.598;2022-09-28T01:38:48;97223.75;;;18.11;84.55
9091;BME280;4581;42.416;25.598;2022-09-28T01:41:16;97223.44;;;18.08;84.86
9091;BME280;4581;42.416;25.598;2022-09-28T01:43:50;97223.06;;;17.99;84.91
9091;BME280;4581;42.416;25.598;2022-09-28T01:46:35;97233.53;;;18.07;85.36
9091;BME280;4581;42.416;25.598;2022-09-28T01:49:49;97226.63;;;18.00;85.73
9091;BME280;4581;42.416;25.598;2022-09-28T01:52:19;97231.63;;;18.08;86.60
9091;BME280;4581;42.416;25.598;2022-09-28T01:54:52;97253.09;;;18.26;85.55
9091;BME280;4581;42.416;25.598;2022-09-28T01:57:33;97254.22;;;18.25;84.59
9091;BME280;4581;42.416;25.598;2022-09-28T02:00:08;97267.28;;;18.23;83.68
9091;BME280;4581;42.416;25.598;2022-09-28T02:03:11;97268.03;;;18.18;84.82
9091;BME280;4581;42.416;25.598;2022-09-28T02:05:47;97270.13;;;17.90;86.67
9091;BME280;4581;42.416;25.598;2022-09-28T02:08:25;97269.28;;;17.67;87.91
9091;BME280;4581;42.416;25.598;2022-09-28T02:11:00;97293.50;;;17.47;88.78
9091;BME280;4581;42.416;25.598;2022-09-28T02:13:36;97254.38;;;17.03;90.11
9091;BME280;4581;42.416;25.598;2022-09-28T02:18:55;97270.38;;;16.83;91.19
9091;BME280;4581;42.416;25.598;2022-09-28T02:21:32;97283.75;;;16.84;92.01
9091;BME280;4581;42.416;25.598;2022-09-28T02:24:09;97279.28;;;16.78;92.79
9091;BME280;4581;42.416;25.598;2022-09-28T02:26:51;97284.63;;;16.73;93.18
9091;BME280;4581;42.416;25.598;2022-09-28T02:29:20;97251.50;;;16.48;93.86
9091;BME280;4581;42.416;25.598;2022-09-28T02:31:49;97282.91;;;16.67;94.15
9091;BME280;4581;42.416;25.598;2022-09-28T02:34:17;97258.31;;;16.62;93.99
9091;BME280;4581;42.416;25.598;2022-09-28T02:36:46;97256.94;;;16.48;93.71
9091;BME280;4581;42.416;25.598;2022-09-28T02:39:14;97260.41;;;16.44;93.67
9091;BME280;4581;42.416;25.598;2022-09-28T02:42:06;97288.59;;;16.54;94.31
9091;BME280;4581;42.416;25.598;2022-09-28T03:00:14;97276.38;;;16.12;95.02
9091;BME280;4581;42.416;25.598;2022-09-28T03:05:49;97288.97;;;16.18;94.76
9091;BME280;4581;42.416;25.598;2022-09-28T03:11:13;97281.28;;;15.75;96.20
9091;BME280;4581;42.416;25.598;2022-09-28T03:13:46;97276.44;;;15.77;96.36
9091;BME280;4581;42.416;25.598;2022-09-28T03:16:18;97286.72;;;15.86;97.07
9091;BME280;4581;42.416;25.598;2022-09-28T03:18:47;97246.00;;;15.63;96.77
9091;BME280;4581;42.416;25.598;2022-09-28T03:21:14;97280.47;;;15.74;96.66
9091;BME280;4581;42.416;25.598;2022-09-28T03:23:41;97277.72;;;15.86;96.20
9091;BME280;4581;42.416;25.598;2022-09-28T03:26:13;97305.59;;;16.05;95.53
9091;BME280;4581;42.416;25.598;2022-09-28T03:28:43;97274.28;;;15.90;95.25
9091;BME280;4581;42.416;25.598;2022-09-28T03:31:09;97268.53;;;15.75;94.96
9091;BME280;4581;42.416;25.598;2022-09-28T03:33:36;97288.47;;;15.81;95.69
9091;BME280;4581;42.416;25.598;2022-09-28T03:36:04;97284.16;;;15.68;96.15
9091;BME280;4581;42.416;25.598;2022-09-28T03:38:34;97293.09;;;15.69;96.60
9091;BME280;4581;42.416;25.598;2022-09-28T03:41:00;97281.66;;;15.67;96.78
9091;BME280;4581;42.416;25.598;2022-09-28T03:43:29;97274.69;;;15.59;97.13
9091;BME280;4581;42.416;25.598;2022-09-28T03:46:00;97278.25;;;15.60;96.89
9091;BME280;4581;42.416;25.598;2022-09-28T03:48:33;97289.94;;;15.60;97.41
9091;BME280;4581;42.416;25.598;2022-09-28T03:51:03;97289.47;;;15.63;97.64
9091;BME280;4581;42.416;25.598;2022-09-28T03:53:31;97283.00;;;15.53;97.33
9091;BME280;4581;42.416;25.598;2022-09-28T03:56:07;97246.09;;;15.33;97.33
9091;BME280;4581;42.416;25.598;2022-09-28T03:58:35;97269.97;;;15.43;97.46
9091;BME280;4581;42.416;25.598;2022-09-28T04:01:22;97296.44;;;15.59;96.93
9091;BME280;4581;42.416;25.598;2022-09-28T04:03:53;97300.34;;;15.52;96.49
9091;BME280;4581;42.416;25.598;2022-09-28T04:06:23;97306.59;;;15.52;96.43
9091;BME280;4581;42.416;25.598;2022-09-28T04:08:51;97303.88;;;15.40;97.13
9091;BME280;4581;42.416;25.598;2022-09-28T04:11:21;97297.00;;;15.38;97.19
9091;BME280;4581;42.416;25.598;2022-09-28T04:13:51;97291.81;;;15.36;97.17
9091;BME280;4581;42.416;25.598;2022-09-28T04:16:18;97284.81;;;15.29;96.78
9091;BME280;4581;42.416;25.598;2022-09-28T04:18:45;97312.47;;;15.49;96.14
9091;BME280;4581;42.416;25.598;2022-09-28T04:21:15;97311.66;;;15.49;96.03
9091;BME280;4581;42.416;25.598;2022-09-28T04:23:42;97316.72;;;15.45;96.81
9091;BME280;4581;42.416;25.598;2022-09-28T04:26:35;97321.47;;;15.50;96.81
9091;BME280;4581;42.416;25.598;2022-09-28T04:29:01;97306.31;;;15.30;97.47
9091;BME280;4581;42.416;25.598;2022-09-28T04:31:52;97306.44;;;15.24;97.36
9091;BME280;4581;42.416;25.598;2022-09-28T04:34:21;97326.88;;;15.38;97.98
9091;BME280;4581;42.416;25.598;2022-09-28T04:36:48;97325.81;;;15.39;97.95
9091;BME280;4581;42.416;25.598;2022-09-28T04:39:16;97331.72;;;15.48;97.86
9091;BME280;4581;42.416;25.598;2022-09-28T04:41:47;97341.09;;;15.52;97.83
9091;BME280;4581;42.416;25.598;2022-09-28T04:44:19;97335.88;;;15.50;97.82
9091;BME280;4581;42.416;25.598;2022-09-28T04:46:46;97339.22;;;15.52;97.74
9091;BME280;4581;42.416;25.598;2022-09-28T04:49:15;97322.97;;;15.45;97.71
9091;BME280;4581;42.416;25.598;2022-09-28T04:51:43;97320.03;;;15.47;98.08
9091;BME280;4581;42.416;25.598;2022-09-28T04:54:09;97314.72;;;15.40;98.26
9091;BME280;4581;42.416;25.598;2022-09-28T04:56:39;97329.75;;;15.66;98.11
9091;BME280;4581;42.416;25.598;2022-09-28T04:59:07;97348.75;;;15.78;98.09
9091;BME280;4581;42.416;25.598;2022-09-28T05:01:33;97335.16;;;15.78;97.74
9091;BME280;4581;42.416;25.598;2022-09-28T05:04:00;97315.31;;;15.77;97.94
9091;BME280;4581;42.416;25.598;2022-09-28T05:06:30;97331.03;;;15.87;98.72
9091;BME280;4581;42.416;25.598;2022-09-28T05:08:57;97343.19;;;16.08;99.11
9091;BME280;4581;42.416;25.598;2022-09-28T05:11:25;97342.53;;;16.17;98.69
9091;BME280;4581;42.416;25.598;2022-09-28T05:13:54;97354.09;;;16.36;97.95
9091;BME280;4581;42.416;25.598;2022-09-28T05:16:21;97317.84;;;16.19;97.37
9091;BME280;4581;42.416;25.598;2022-09-28T05:18:47;97348.97;;;16.51;96.41
9091;BME280;4581;42.416;25.598;2022-09-28T05:21:14;97346.13;;;16.58;94.87
9091;BME280;4581;42.416;25.598;2022-09-28T05:23:45;97358.06;;;16.85;93.19
9091;BME280;4581;42.416;25.598;2022-09-28T05:26:13;97342.00;;;16.83;92.28
9091;BME280;4581;42.416;25.598;2022-09-28T05:28:40;97340.03;;;16.96;91.42
9091;BME280;4581;42.416;25.598;2022-09-28T05:31:07;97365.06;;;17.26;90.64
9091;BME280;4581;42.416;25.598;2022-09-28T05:33:41;97339.72;;;17.25;90.32
9091;BME280;4581;42.416;25.598;2022-09-28T05:36:08;97363.94;;;17.55;89.87
9091;BME280;4581;42.416;25.598;2022-09-28T05:38:38;97356.75;;;17.66;89.13
9091;BME280;4581;42.416;25.598;2022-09-28T05:41:08;97370.47;;;17.88;87.78
9091;BME280;4581;42.416;25.598;2022-09-28T05:43:34;97361.69;;;17.86;88.80
9091;BME280;4581;42.416;25.598;2022-09-28T05:46:04;97362.53;;;17.86;91.09
9091;BME280;4581;42.416;25.598;2022-09-28T05:48:31;97354.66;;;17.90;92.33
9091;BME280;4581;42.416;25.598;2022-09-28T05:50:59;97382.50;;;18.08;92.84
9091;BME280;4581;42.416;25.598;2022-09-28T05:53:27;97390.81;;;18.18;92.16
9091;BME280;4581;42.416;25.598;2022-09-28T05:55:57;97388.91;;;18.19;90.64
9091;BME280;4581;42.416;25.598;2022-09-28T05:58:28;97399.00;;;18.18;89.57
9091;BME280;4581;42.416;25.598;2022-09-28T06:00:55;97388.97;;;18.24;89.79
9091;BME280;4581;42.416;25.598;2022-09-28T06:03:22;97404.19;;;18.58;90.40
9091;BME280;4581;42.416;25.598;2022-09-28T06:05:49;97408.06;;;18.62;89.93
9091;BME280;4581;42.416;25.598;2022-09-28T06:08:16;97411.75;;;18.73;88.57
9091;BME280;4581;42.416;25.598;2022-09-28T06:10:44;97418.66;;;18.59;89.37
9091;BME280;4581;42.416;25.598;2022-09-28T06:13:11;97411.56;;;18.80;89.65
9091;BME280;4581;42.416;25.598;2022-09-28T06:15:40;97399.34;;;18.87;88.44
9091;BME280;4581;42.416;25.598;2022-09-28T06:18:12;97425.44;;;19.22;88.53
9091;BME280;4581;42.416;25.598;2022-09-28T06:20:40;97407.75;;;19.29;86.23
9091;BME280;4581;42.416;25.598;2022-09-28T06:23:08;97413.28;;;19.66;83.67
9091;BME280;4581;42.416;25.598;2022-09-28T06:25:36;97410.69;;;19.86;81.77
9091;BME280;4581;42.416;25.598;2022-09-28T06:28:09;97431.81;;;20.28;79.08
9091;BME280;4581;42.416;25.598;2022-09-28T06:30:42;97440.75;;;20.55;77.07
9091;BME280;4581;42.416;25.598;2022-09-28T06:33:11;97437.78;;;20.67;77.67
9091;BME280;4581;42.416;25.598;2022-09-28T06:35:39;97426.34;;;20.80;77.73
9091;BME280;4581;42.416;25.598;2022-09-28T06:38:06;97433.94;;;20.63;76.49
9091;BME280;4581;42.416;25.598;2022-09-28T06:40:33;97441.22;;;20.99;77.36
9091;BME280;4581;42.416;25.598;2022-09-28T06:43:13;97435.22;;;21.02;78.10
9091;BME280;4581;42.416;25.598;2022-09-28T06:45:51;97413.28;;;21.02;76.26
9091;BME280;4581;42.416;25.598;2022-09-28T06:48:20;97427.66;;;21.34;76.70
9091;BME280;4581;42.416;25.598;2022-09-28T06:50:49;97430.97;;;21.41;74.00
9091;BME280;4581;42.416;25.598;2022-09-28T06:53:16;97418.78;;;21.02;76.00
9091;BME280;4581;42.416;25.598;2022-09-28T06:55:45;97407.81;;;21.07;75.66
9091;BME280;4581;42.416;25.598;2022-09-28T06:58:17;97446.31;;;21.37;76.09
9091;BME280;4581;42.416;25.598;2022-09-28T07:00:50;97418.00;;;21.17;70.38
9091;BME280;4581;42.416;25.598;2022-09-28T07:03:20;97423.25;;;21.38;71.68
9091;BME280;4581;42.416;25.598;2022-09-28T07:05:50;97456.78;;;21.76;68.59
9091;BME280;4581;42.416;25.598;2022-09-28T07:08:22;97432.09;;;21.81;69.65
9091;BME280;4581;42.416;25.598;2022-09-28T07:10:53;97448.56;;;21.76;70.58
9091;BME280;4581;42.416;25.598;2022-09-28T07:13:26;97434.81;;;21.56;71.03
9091;BME280;4581;42.416;25.598;2022-09-28T07:16:16;97429.88;;;21.63;70.89
9091;BME280;4581;42.416;25.598;2022-09-28T07:18:47;97433.75;;;21.92;68.97
9091;BME280;4581;42.416;25.598;2022-09-28T07:21:14;97424.97;;;22.05;71.10
9091;BME280;4581;42.416;25.598;2022-09-28T07:23:53;97418.38;;;22.11;66.02
9091;BME280;4581;42.416;25.598;2022-09-28T07:26:20;97465.03;;;22.47;66.37
9091;BME280;4581;42.416;25.598;2022-09-28T07:28:50;97471.63;;;22.46;61.00
9091;BME280;4581;42.416;25.598;2022-09-28T07:31:16;97454.56;;;22.44;61.26
9091;BME280;4581;42.416;25.598;2022-09-28T07:33:45;97464.72;;;22.53;62.96
9091;BME280;4581;42.416;25.598;2022-09-28T07:36:14;97472.13;;;22.63;63.22
9091;BME280;4581;42.416;25.598;2022-09-28T07:38:44;97465.31;;;22.25;64.33
9091;BME280;4581;42.416;25.598;2022-09-28T07:41:11;97460.66;;;22.20;66.06
9091;BME280;4581;42.416;25.598;2022-09-28T07:43:40;97472.44;;;22.41;66.60
9091;BME280;4581;42.416;25.598;2022-09-28T07:46:08;97477.91;;;22.61;67.41
9091;BME280;4581;42.416;25.598;2022-09-28T07:48:39;97483.13;;;22.73;66.20
9091;BME280;4581;42.416;25.598;2022-09-28T07:51:06;97468.56;;;22.72;66.20
9091;BME280;4581;42.416;25.598;2022-09-28T07:53:36;97474.31;;;22.71;65.97
9091;BME280;4581;42.416;25.598;2022-09-28T07:56:06;97465.03;;;22.42;65.50
9091;BME280;4581;42.416;25.598;2022-09-28T07:58:47;97462.31;;;22.21;65.14
9091;BME280;4581;42.416;25.598;2022-09-28T08:01:14;97463.66;;;22.34;67.26
9091;BME280;4581;42.416;25.598;2022-09-28T08:03:42;97458.16;;;22.39;67.44
9091;BME280;4581;42.416;25.598;2022-09-28T08:06:12;97455.66;;;22.53;64.25
9091;BME280;4581;42.416;25.598;2022-09-28T08:08:40;97469.34;;;22.68;65.16
9091;BME280;4581;42.416;25.598;2022-09-28T08:11:12;97441.34;;;22.71;63.55
9091;BME280;4581;42.416;25.598;2022-09-28T08:13:43;97479.81;;;22.71;61.77
9091;BME280;4581;42.416;25.598;2022-09-28T08:16:11;97474.28;;;22.86;62.54
9091;BME280;4581;42.416;25.598;2022-09-28T08:18:38;97439.31;;;23.02;64.19
9091;BME280;4581;42.416;25.598;2022-09-28T08:21:05;97481.81;;;23.29;62.75
9091;BME280;4581;42.416;25.598;2022-09-28T08:23:50;97455.38;;;23.33;59.46
9091;BME280;4581;42.416;25.598;2022-09-28T08:26:18;97443.31;;;23.24;62.80
9091;BME280;4581;42.416;25.598;2022-09-28T08:28:48;97462.41;;;23.60;60.26
9091;BME280;4581;42.416;25.598;2022-09-28T08:31:18;97452.41;;;23.74;59.81
9091;BME280;4581;42.416;25.598;2022-09-28T08:33:45;97431.88;;;23.56;60.20
9091;BME280;4581;42.416;25.598;2022-09-28T08:36:13;97439.31;;;23.95;60.74
9091;BME280;4581;42.416;25.598;2022-09-28T08:38:41;97458.06;;;24.27;59.00
9091;BME280;4581;42.416;25.598;2022-09-28T08:41:39;97466.22;;;24.37;58.17
9091;BME280;4581;42.416;25.598;2022-09-28T08:44:14;97475.94;;;24.58;59.57
9091;BME280;4581;42.416;25.598;2022-09-28T08:47:03;97473.91;;;24.40;55.52
9091;BME280;4581;42.416;25.598;2022-09-28T08:49:39;97472.72;;;24.51;56.81
9091;BME280;4581;42.416;25.598;2022-09-28T08:52:13;97463.47;;;24.65;58.10
9091;BME280;4581;42.416;25.598;2022-09-28T08:55:03;97458.25;;;24.88;57.70
9091;BME280;4581;42.416;25.598;2022-09-28T08:57:54;97460.84;;;24.79;55.83
9091;BME280;4581;42.416;25.598;2022-09-28T09:00:35;97464.03;;;24.91;57.30
9091;BME280;4581;42.416;25.598;2022-09-28T09:03:05;97441.66;;;24.93;56.19
9091;BME280;4581;42.416;25.598;2022-09-28T09:06:04;97468.56;;;25.25;57.47
9091;BME280;4581;42.416;25.598;2022-09-28T09:20:24;97469.41;;;25.68;53.65
9091;BME280;4581;42.416;25.598;2022-09-28T09:23:18;97460.84;;;26.01;53.27
9091;BME280;4581;42.416;25.598;2022-09-28T09:25:51;97458.44;;;26.14;53.25
9091;BME280;4581;42.416;25.598;2022-09-28T09:37:08;97455.91;;;26.36;51.15
9091;BME280;4581;42.416;25.598;2022-09-28T09:45:40;97454.25;;;27.08;48.86
9091;BME280;4581;42.416;25.598;2022-09-28T09:48:20;97447.56;;;27.09;44.83
9091;BME280;4581;42.416;25.598;2022-09-28T09:50:58;97457.81;;;26.68;45.54
9091;BME280;4581;42.416;25.598;2022-09-28T09:53:38;97448.47;;;26.64;48.12
9091;BME280;4581;42.416;25.598;2022-09-28T09:56:15;97433.44;;;27.11;48.70
9091;BME280;4581;42.416;25.598;2022-09-28T09:58:47;97436.38;;;27.41;45.75
9091;BME280;4581;42.416;25.598;2022-09-28T10:01:31;97398.84;;;27.49;46.41
9091;BME280;4581;42.416;25.598;2022-09-28T10:04:05;97448.56;;;27.90;45.17
9091;BME280;4581;42.416;25.598;2022-09-28T10:06:35;97440.88;;;27.87;44.30
9091;BME280;4581;42.416;25.598;2022-09-28T10:09:07;97435.31;;;27.65;44.19
9091;BME280;4581;42.416;25.598;2022-09-28T10:11:42;97432.00;;;27.76;43.04
9091;BME280;4581;42.416;25.598;2022-09-28T10:14:17;97433.88;;;27.89;43.38
9091;BME280;4581;42.416;25.598;2022-09-28T10:16:55;97428.34;;;27.89;42.54
9091;BME280;4581;42.416;25.598;2022-09-28T10:19:32;97429.28;;;27.63;38.42
9091;BME280;4581;42.416;25.598;2022-09-28T10:22:02;97418.72;;;27.37;40.12
9091;BME280;4581;42.416;25.598;2022-09-28T10:24:39;97411.06;;;27.21;39.82
9091;BME280;4581;42.416;25.598;2022-09-28T10:27:13;97416.88;;;27.60;37.37
9091;BME280;4581;42.416;25.598;2022-09-28T10:29:48;97417.16;;;27.72;37.30
9091;BME280;4581;42.416;25.598;2022-09-28T10:32:21;97415.16;;;27.73;35.29
9091;BME280;4581;42.416;25.598;2022-09-28T10:34:51;97416.41;;;27.80;35.01
9091;BME280;4581;42.416;25.598;2022-09-28T10:37:18;97417.78;;;28.14;34.62
9091;BME280;4581;42.416;25.598;2022-09-28T10:42:24;97416.22;;;27.99;36.14
9091;BME280;4581;42.416;25.598;2022-09-28T10:47:25;97399.69;;;27.72;34.77
9091;BME280;4581;42.416;25.598;2022-09-28T10:50:01;97399.25;;;27.42;36.38
9091;BME280;4581;42.416;25.598;2022-09-28T10:52:33;97408.97;;;27.04;37.58
9091;BME280;4581;42.416;25.598;2022-09-28T10:58:25;97407.41;;;27.61;35.87
9091;BME280;4581;42.416;25.598;2022-09-28T11:00:59;97397.41;;;27.74;35.83
9091;BME280;4581;42.416;25.598;2022-09-28T11:03:28;97390.06;;;27.91;36.60
9091;BME280;4581;42.416;25.598;2022-09-28T11:06:07;97373.69;;;28.04;36.31
9091;BME280;4581;42.416;25.598;2022-09-28T11:08:55;97385.34;;;28.36;36.41
9091;BME280;4581;42.416;25.598;2022-09-28T11:11:22;97377.09;;;28.23;34.76
9091;BME280;4581;42.416;25.598;2022-09-28T11:14:26;97388.53;;;28.30;36.00
9091;BME280;4581;42.416;25.598;2022-09-28T11:17:24;97390.44;;;28.82;35.22
9091;BME280;4581;42.416;25.598;2022-09-28T11:19:56;97382.84;;;29.14;32.81
9091;BME280;4581;42.416;25.598;2022-09-28T11:22:37;97373.47;;;29.32;33.22
9091;BME280;4581;42.416;25.598;2022-09-28T11:25:26;97371.97;;;29.35;32.78
9091;BME280;4581;42.416;25.598;2022-09-28T11:28:39;97375.25;;;29.62;32.64
9091;BME280;4581;42.416;25.598;2022-09-28T11:31:10;97365.94;;;29.58;32.27
9091;BME280;4581;42.416;25.598;2022-09-28T11:33:39;97347.97;;;29.30;30.09
9091;BME280;4581;42.416;25.598;2022-09-28T11:38:42;97353.03;;;30.60;30.51
9091;BME280;4581;42.416;25.598;2022-09-28T11:49:40;97365.63;;;35.05;23.29
9091;BME280;4581;42.416;25.598;2022-09-28T11:52:25;97364.50;;;36.33;23.01
9091;BME280;4581;42.416;25.598;2022-09-28T11:55:16;97365.56;;;36.67;22.17
9091;BME280;4581;42.416;25.598;2022-09-28T11:57:47;97359.44;;;37.60;21.33
9091;BME280;4581;42.416;25.598;2022-09-28T12:00:19;97369.72;;;38.38;19.34
9091;BME280;4581;42.416;25.598;2022-09-28T12:05:31;97374.09;;;39.13;19.93
9091;BME280;4581;42.416;25.598;2022-09-28T12:08:06;97375.75;;;40.62;18.95
9091;BME280;4581;42.416;25.598;2022-09-28T12:10:38;97369.34;;;41.25;17.23
9091;BME280;4581;42.416;25.598;2022-09-28T12:13:17;97376.84;;;40.33;18.43
9091;BME280;4581;42.416;25.598;2022-09-28T12:16:14;97375.63;;;40.19;18.29
9091;BME280;4581;42.416;25.598;2022-09-28T12:19:17;97374.34;;;39.41;18.54
9091;BME280;4581;42.416;25.598;2022-09-28T12:22:14;97374.44;;;40.28;17.42
9091;BME280;4581;42.416;25.598;2022-09-28T12:24:49;97358.56;;;38.12;19.63
9091;BME280;4581;42.416;25.598;2022-09-28T12:28:00;97358.69;;;36.65;20.00
9091;BME280;4581;42.416;25.598;2022-09-28T12:50:29;97355.00;;;37.55;19.46
9091;BME280;4581;42.416;25.598;2022-09-28T12:56:10;97347.63;;;38.84;19.16
9091;BME280;4581;42.416;25.598;2022-09-28T12:59:30;97344.19;;;34.34;22.73
9091;BME280;4581;42.416;25.598;2022-09-28T13:11:04;97328.84;;;29.54;28.35
9091;BME280;4581;42.416;25.598;2022-09-28T13:19:04;97309.03;;;28.17;29.37
9091;BME280;4581;42.416;25.598;2022-09-28T13:22:29;97315.59;;;28.21;29.78
9091;BME280;4581;42.416;25.598;2022-09-28T13:24:48;97295.88;;;27.69;29.65
9091;BME280;4581;42.416;25.598;2022-09-28T13:27:36;97308.16;;;27.55;30.33
9091;BME280;4581;42.416;25.598;2022-09-28T13:30:04;97305.09;;;27.42;30.96
9091;BME280;4581;42.416;25.598;2022-09-28T13:32:35;97288.47;;;27.20;31.13
9091;BME280;4581;42.416;25.598;2022-09-28T13:35:23;97323.91;;;27.32;31.20
9091;BME280;4581;42.416;25.598;2022-09-28T13:47:03;97309.00;;;27.06;32.14
9091;BME280;4581;42.416;25.598;2022-09-28T13:53:27;97302.28;;;26.98;32.89
9091;BME280;4581;42.416;25.598;2022-09-28T13:58:29;97297.59;;;26.71;33.33
9091;BME280;4581;42.416;25.598;2022-09-28T14:01:06;97304.13;;;26.75;33.39
9091;BME280;4581;42.416;25.598;2022-09-28T14:06:42;97296.16;;;26.60;31.88
9091;BME280;4581;42.416;25.598;2022-09-28T14:09:39;97303.31;;;26.61;32.82
9091;BME280;4581;42.416;25.598;2022-09-28T14:12:30;97306.19;;;26.56;33.37
9091;BME280;4581;42.416;25.598;2022-09-28T14:31:25;97309.78;;;26.29;32.53
9091;BME280;4581;42.416;25.598;2022-09-28T14:34:00;97309.75;;;26.16;33.00
9091;BME280;4581;42.416;25.598;2022-09-28T14:36:41;97300.31;;;26.03;33.15
9091;BME280;4581;42.416;25.598;2022-09-28T14:39:33;97307.38;;;25.95;32.30
9091;BME280;4581;42.416;25.598;2022-09-28T14:42:24;97293.22;;;25.83;32.76
9091;BME280;4581;42.416;25.598;2022-09-28T14:47:43;97310.59;;;25.70;33.29
9091;BME280;4581;42.416;25.598;2022-09-28T14:50:29;97303.28;;;25.60;33.98
9091;BME280;4581;42.416;25.598;2022-09-28T14:53:08;97317.28;;;25.64;33.85
9091;BME280;4581;42.416;25.598;2022-09-28T14:55:53;97316.25;;;25.60;34.36
9091;BME280;4581;42.416;25.598;2022-09-28T14:58:27;97312.00;;;25.49;34.45
9091;BME280;4581;42.416;25.598;2022-09-28T15:01:16;97305.97;;;25.47;34.27
9091;BME280;4581;42.416;25.598;2022-09-28T15:03:53;97312.25;;;25.34;34.70
9091;BME280;4581;42.416;25.598;2022-09-28T15:06:23;97318.28;;;25.36;35.33
9091;BME280;4581;42.416;25.598;2022-09-28T15:08:50;97314.66;;;25.22;34.45
9091;BME280;4581;42.416;25.598;2022-09-28T15:11:23;97307.59;;;25.15;34.83
9091;BME280;4581;42.416;25.598;2022-09-28T15:14:05;97323.00;;;25.16;35.33
9091;BME280;4581;42.416;25.598;2022-09-28T15:16:33;97318.47;;;25.07;36.46
9091;BME280;4581;42.416;25.598;2022-09-28T15:19:34;97331.66;;;25.10;36.93
9091;BME280;4581;42.416;25.598;2022-09-28T15:22:19;97323.66;;;24.90;37.37
9091;BME280;4581;42.416;25.598;2022-09-28T15:24:57;97322.38;;;24.82;38.05
9091;BME280;4581;42.416;25.598;2022-09-28T15:27:35;97327.88;;;24.82;37.95
9091;BME280;4581;42.416;25.598;2022-09-28T15:30:26;97327.56;;;24.65;38.92
9091;BME280;4581;42.416;25.598;2022-09-28T15:33:01;97315.84;;;24.54;39.91
9091;BME280;4581;42.416;25.598;2022-09-28T15:35:59;97328.34;;;24.47;40.31
9091;BME280;4581;42.416;25.598;2022-09-28T15:38:31;97320.31;;;24.27;40.89
9091;BME280;4581;42.416;25.598;2022-09-28T15:41:04;97329.22;;;24.18;41.58
9091;BME280;4581;42.416;25.598;2022-09-28T15:43:35;97333.69;;;24.09;41.81
9091;BME280;4581;42.416;25.598;2022-09-28T15:46:12;97311.66;;;23.81;42.35
9091;BME280;4581;42.416;25.598;2022-09-28T15:49:01;97333.09;;;23.84;42.25
9091;BME280;4581;42.416;25.598;2022-09-28T15:51:31;97297.06;;;23.51;42.12
9091;BME280;4581;42.416;25.598;2022-09-28T15:54:20;97330.53;;;23.63;42.57
9091;BME280;4581;42.416;25.598;2022-09-28T15:56:58;97323.78;;;23.51;42.66
9091;BME280;4581;42.416;25.598;2022-09-28T15:59:35;97336.19;;;23.48;42.73
9091;BME280;4581;42.416;25.598;2022-09-28T16:02:19;97329.34;;;23.36;43.50
9091;BME280;4581;42.416;25.598;2022-09-28T16:04:51;97335.47;;;23.27;43.89
9091;BME280;4581;42.416;25.598;2022-09-28T16:07:34;97334.72;;;23.17;43.89
9091;BME280;4581;42.416;25.598;2022-09-28T16:12:48;97327.97;;;22.99;45.23
9091;BME280;4581;42.416;25.598;2022-09-28T16:15:34;97323.66;;;22.83;45.10
9091;BME280;4581;42.416;25.598;2022-09-28T16:18:18;97334.16;;;22.76;46.47
9091;BME280;4581;42.416;25.598;2022-09-28T16:20:54;97301.56;;;22.49;45.93
9091;BME280;4581;42.416;25.598;2022-09-28T16:23:29;97332.03;;;22.53;46.56
9091;BME280;4581;42.416;25.598;2022-09-28T16:26:12;97338.66;;;22.47;46.53
9091;BME280;4581;42.416;25.598;2022-09-28T16:34:08;97340.91;;;22.29;47.73
9091;BME280;4581;42.416;25.598;2022-09-28T16:36:47;97340.38;;;22.22;48.22
9091;BME280;4581;42.416;25.598;2022-09-28T16:39:28;97324.50;;;22.09;48.43